createdAt,value
2023-02-06T00:00:15.707Z,3.35
2023-02-06T00:01:19.097Z,3.60
2023-02-06T00:02:22.359Z,3.35
2023-02-06T00:03:25.600Z,3.85
2023-02-06T00:04:28.741Z,3.78
2023-02-06T00:05:31.812Z,4.07
2023-02-06T00:06:35.195Z,3.55
2023-02-06T00:07:41.590Z,3.62
2023-02-06T00:08:45.283Z,3.83
2023-02-06T00:09:48.388Z,3.92
2023-02-06T00:10:51.702Z,4.22
2023-02-06T00:11:54.781Z,3.40
2023-02-06T00:12:57.881Z,4.12
2023-02-06T00:14:01.346Z,3.92
2023-02-06T00:15:04.524Z,3.70
2023-02-06T00:16:17.471Z,3.50
2023-02-06T00:17:20.862Z,3.75
2023-02-06T00:18:23.865Z,3.58
2023-02-06T00:19:27.160Z,3.75
2023-02-06T00:20:30.220Z,3.67
2023-02-06T00:21:33.520Z,3.58
2023-02-06T00:22:36.912Z,3.85
2023-02-06T00:23:40.350Z,4.18
2023-02-06T00:24:43.519Z,3.05
2023-02-06T00:25:46.628Z,3.87
2023-02-06T00:26:49.743Z,3.67
2023-02-06T00:27:53.085Z,3.80
2023-02-06T00:28:56.563Z,3.80
2023-02-06T00:29:59.677Z,3.50
2023-02-06T00:31:05.238Z,3.53
2023-02-06T00:32:08.513Z,3.45
2023-02-06T00:33:11.656Z,3.80
2023-02-06T00:34:14.696Z,3.40
2023-02-06T00:35:17.736Z,3.90
2023-02-06T00:36:20.830Z,3.00
2023-02-06T00:37:23.987Z,3.28
2023-02-06T00:38:27.270Z,3.40
2023-02-06T00:39:30.673Z,3.55
2023-02-06T00:40:33.770Z,3.40
2023-02-06T00:41:37.199Z,3.50
2023-02-06T00:42:40.232Z,3.47
2023-02-06T00:43:43.830Z,3.28
2023-02-06T00:44:46.925Z,3.65
2023-02-06T00:45:54.040Z,2.75
2023-02-06T00:46:59.177Z,3.80
2023-02-06T00:48:02.785Z,3.35
2023-02-06T00:49:06.035Z,3.60
2023-02-06T00:50:09.516Z,3.45
2023-02-06T00:51:12.769Z,3.55
2023-02-06T00:52:15.914Z,3.83
2023-02-06T00:53:19.191Z,3.72
2023-02-06T00:54:22.217Z,3.72
2023-02-06T00:55:25.427Z,3.22
2023-02-06T00:56:28.463Z,3.92
2023-02-06T00:57:31.867Z,4.10
2023-02-06T00:58:35.278Z,3.60
2023-02-06T00:59:38.540Z,3.20
2023-02-06T01:00:41.943Z,3.67
2023-02-06T01:01:45.714Z,3.53
2023-02-06T01:02:49.024Z,3.20
2023-02-06T01:03:52.952Z,3.12
2023-02-06T01:04:56.193Z,3.00
2023-02-06T01:05:59.215Z,3.45
2023-02-06T01:07:03.068Z,3.28
2023-02-06T01:08:09.612Z,3.72
2023-02-06T01:09:12.766Z,2.55
2023-02-06T01:10:16.142Z,2.80
2023-02-06T01:11:25.057Z,3.40
2023-02-06T01:12:28.233Z,3.40
2023-02-06T01:13:31.423Z,3.47
2023-02-06T01:14:34.513Z,2.87
2023-02-06T01:15:38.126Z,3.65
2023-02-06T01:16:41.250Z,3.25
2023-02-06T01:17:44.321Z,3.67
2023-02-06T01:18:47.864Z,3.75
2023-02-06T01:19:51.236Z,3.58
2023-02-06T01:20:54.157Z,4.53
2023-02-06T01:21:57.245Z,4.22
2023-02-06T01:23:00.569Z,4.43
2023-02-06T01:24:03.998Z,4.43
2023-02-06T01:25:07.363Z,5.03
2023-02-06T01:26:14.752Z,4.90
2023-02-06T01:27:17.789Z,4.57
2023-02-06T01:28:24.810Z,4.53
2023-02-06T01:29:27.961Z,5.60
2023-02-06T01:30:31.252Z,4.90
2023-02-06T01:31:35.112Z,4.57
2023-02-06T01:32:40.015Z,4.95
2023-02-06T01:33:44.840Z,5.50
2023-02-06T01:34:47.875Z,4.95
2023-02-06T01:35:57.113Z,5.30
2023-02-06T01:37:00.177Z,5.47
2023-02-06T01:38:03.163Z,4.93
2023-02-06T01:39:07.359Z,3.80
2023-02-06T01:40:16.123Z,4.60
2023-02-06T01:41:22.353Z,4.97
2023-02-06T01:42:25.454Z,4.57
2023-02-06T01:43:34.703Z,4.25
2023-02-06T01:44:38.103Z,4.95
2023-02-06T01:45:43.349Z,4.05
2023-02-06T01:46:48.763Z,4.43
2023-02-06T01:48:00.592Z,5.32
2023-02-06T01:49:07.051Z,4.05
2023-02-06T01:50:10.544Z,4.43
2023-02-06T01:51:18.590Z,4.68
2023-02-06T01:52:30.800Z,4.03
2023-02-06T01:53:35.452Z,4.37
2023-02-06T01:54:38.712Z,4.18
2023-02-06T01:55:45.429Z,3.67
2023-02-06T01:56:53.638Z,3.62
2023-02-06T01:57:57.657Z,4.07
2023-02-06T01:59:05.728Z,3.95
2023-02-06T02:00:11.390Z,4.00
2023-02-06T02:01:15.820Z,4.53
2023-02-06T02:02:18.935Z,3.53
2023-02-06T02:03:22.528Z,3.50
2023-02-06T02:04:28.642Z,3.85
2023-02-06T02:05:33.972Z,4.03
2023-02-06T02:06:37.801Z,3.85
2023-02-06T02:07:54.014Z,3.85
2023-02-06T02:08:58.474Z,3.65
2023-02-06T02:10:02.072Z,3.85
2023-02-06T02:11:07.782Z,3.70
2023-02-06T02:12:11.201Z,3.58
2023-02-06T02:13:14.229Z,3.30
2023-02-06T02:14:17.815Z,3.58
2023-02-06T02:15:25.894Z,3.20
2023-02-06T02:16:52.647Z,3.40
2023-02-06T02:18:19.129Z,3.75
2023-02-06T02:20:03.176Z,2.87
2023-02-06T02:21:34.939Z,3.40
2023-02-06T02:23:06.396Z,3.05
2023-02-06T02:24:26.845Z,3.00
2023-02-06T02:26:05.496Z,2.85
2023-02-06T02:27:33.274Z,3.05
2023-02-06T02:28:48.608Z,3.10
2023-02-06T02:30:03.849Z,2.65
2023-02-06T02:33:05.835Z,2.90
2023-02-06T02:34:32.713Z,2.80
2023-02-06T02:36:00.385Z,2.90
2023-02-06T02:37:31.999Z,3.28
2023-02-06T02:38:41.597Z,3.30
2023-02-06T02:39:55.254Z,3.37
2023-02-06T02:41:16.177Z,3.47
2023-02-06T02:42:49.086Z,3.27
2023-02-06T02:44:03.790Z,3.15
2023-02-06T02:45:33.680Z,3.00
2023-02-06T02:46:51.001Z,3.30
2023-02-06T02:48:11.967Z,2.75
2023-02-06T02:49:24.241Z,3.60
2023-02-06T02:50:29.817Z,2.87
2023-02-06T02:51:34.479Z,3.70
2023-02-06T02:52:37.421Z,3.58
2023-02-06T02:53:40.625Z,3.33
2023-02-06T02:54:44.103Z,3.10
2023-02-06T02:55:47.428Z,3.17
2023-02-06T02:56:50.726Z,3.42
2023-02-06T02:58:01.010Z,3.42
2023-02-06T02:59:06.610Z,3.65
2023-02-06T03:00:11.040Z,3.10
2023-02-06T03:01:21.609Z,3.08
2023-02-06T03:02:38.366Z,3.12
2023-02-06T03:03:44.831Z,2.97
2023-02-06T03:05:00.591Z,3.17
2023-02-06T03:06:39.699Z,3.25
2023-02-06T03:07:45.458Z,2.55
2023-02-06T03:09:06.202Z,2.95
2023-02-06T03:10:17.942Z,3.12
2023-02-06T03:11:21.742Z,3.47
2023-02-06T03:12:49.027Z,2.97
2023-02-06T03:14:06.339Z,3.42
2023-02-06T03:15:12.021Z,2.92
2023-02-06T03:16:22.447Z,3.12
2023-02-06T03:17:48.321Z,3.20
2023-02-06T03:19:09.549Z,3.33
2023-02-06T03:20:14.778Z,2.97
2023-02-06T03:21:21.537Z,2.97
2023-02-06T03:22:26.068Z,3.47
2023-02-06T03:23:32.876Z,2.90
2023-02-06T03:24:39.686Z,3.37
2023-02-06T03:25:45.030Z,3.17
2023-02-06T03:26:52.504Z,3.22
2023-02-06T03:27:59.716Z,3.05
2023-02-06T03:29:06.506Z,3.78
2023-02-06T03:30:14.578Z,3.35
2023-02-06T03:31:25.289Z,3.50
2023-02-06T03:32:32.977Z,3.67
2023-02-06T03:33:44.149Z,3.37
2023-02-06T03:34:51.793Z,3.30
2023-02-06T03:35:57.177Z,3.40
2023-02-06T03:37:00.742Z,3.10
2023-02-06T03:38:07.218Z,2.90
2023-02-06T03:39:10.566Z,2.67
2023-02-06T03:40:18.590Z,3.15
2023-02-06T03:41:29.822Z,3.70
2023-02-06T03:42:37.813Z,2.92
2023-02-06T03:43:44.200Z,3.00
2023-02-06T03:44:57.981Z,3.42
2023-02-06T03:46:05.419Z,3.00
2023-02-06T03:47:11.091Z,3.67
2023-02-06T03:48:23.909Z,3.40
2023-02-06T03:49:29.946Z,3.50
2023-02-06T03:50:42.549Z,3.30
2023-02-06T03:51:51.897Z,3.05
2023-02-06T03:52:58.389Z,2.92
2023-02-06T03:54:04.923Z,3.15
2023-02-06T03:55:15.666Z,2.90
2023-02-06T03:56:49.141Z,3.42
2023-02-06T03:57:56.637Z,2.37
2023-02-06T03:59:00.212Z,3.30
2023-02-06T04:00:04.969Z,3.17
2023-02-06T04:01:12.063Z,3.05
2023-02-06T04:02:17.232Z,3.35
2023-02-06T04:03:21.727Z,3.90
2023-02-06T04:04:51.311Z,2.72
2023-02-06T04:05:54.248Z,2.90
2023-02-06T04:07:02.110Z,3.00
2023-02-06T04:08:05.435Z,3.00
2023-02-06T04:09:08.493Z,3.15
2023-02-06T04:10:12.315Z,3.30
2023-02-06T04:11:15.625Z,3.50
2023-02-06T04:12:19.049Z,3.50
2023-02-06T04:13:21.991Z,2.90
2023-02-06T04:14:25.157Z,2.85
2023-02-06T04:15:28.129Z,3.47
2023-02-06T04:16:31.390Z,3.40
2023-02-06T04:17:49.841Z,3.60
2023-02-06T04:18:56.962Z,2.78
2023-02-06T04:19:59.929Z,3.05
2023-02-06T04:21:07.498Z,2.90
2023-02-06T04:22:13.728Z,2.72
2023-02-06T04:23:16.998Z,2.90
2023-02-06T04:24:19.987Z,3.58
2023-02-06T04:25:23.451Z,3.15
2023-02-06T04:26:28.562Z,2.90
2023-02-06T04:27:31.890Z,3.10
2023-02-06T04:28:38.574Z,2.95
2023-02-06T04:29:41.865Z,3.22
2023-02-06T04:30:44.967Z,3.05
2023-02-06T04:31:47.978Z,3.00
2023-02-06T04:32:51.234Z,2.97
2023-02-06T04:33:54.328Z,3.05
2023-02-06T04:34:57.322Z,2.97
2023-02-06T04:36:00.514Z,3.08
2023-02-06T04:37:04.862Z,3.12
2023-02-06T04:38:08.368Z,3.80
2023-02-06T04:39:11.383Z,3.00
2023-02-06T04:40:14.779Z,3.20
2023-02-06T04:41:19.854Z,3.30
2023-02-06T04:42:23.062Z,3.30
2023-02-06T04:43:25.963Z,3.58
2023-02-06T04:44:29.206Z,3.40
2023-02-06T04:45:32.309Z,3.55
2023-02-06T04:46:35.354Z,3.62
2023-02-06T04:47:38.666Z,3.80
2023-02-06T04:48:42.056Z,3.97
2023-02-06T04:49:45.294Z,4.72
2023-02-06T04:50:50.200Z,4.15
2023-02-06T04:51:53.358Z,4.00
2023-02-06T04:52:56.396Z,4.65
2023-02-06T04:53:59.419Z,4.60
2023-02-06T04:55:02.445Z,4.70
2023-02-06T04:56:11.906Z,3.90
2023-02-06T04:57:18.802Z,4.72
2023-02-06T04:58:22.646Z,3.78
2023-02-06T04:59:25.770Z,5.25
2023-02-06T05:00:28.760Z,4.00
2023-02-06T05:01:31.888Z,4.03
2023-02-06T05:02:39.983Z,4.07
2023-02-06T05:03:43.220Z,4.47
2023-02-06T05:04:46.227Z,4.62
2023-02-06T05:05:49.196Z,4.22
2023-02-06T05:06:52.263Z,4.03
2023-02-06T05:07:55.301Z,4.10
2023-02-06T05:09:00.097Z,4.18
2023-02-06T05:10:04.233Z,4.18
2023-02-06T05:11:07.664Z,3.75
2023-02-06T05:12:12.640Z,4.15
2023-02-06T05:13:17.324Z,4.15
2023-02-06T05:14:20.429Z,4.60
2023-02-06T05:15:23.386Z,4.65
2023-02-06T05:16:26.429Z,3.87
2023-02-06T05:17:29.622Z,4.43
2023-02-06T05:18:33.017Z,3.62
2023-02-06T05:19:36.120Z,4.10
2023-02-06T05:20:39.008Z,3.85
2023-02-06T05:21:42.227Z,4.10
2023-02-06T05:22:45.328Z,3.75
2023-02-06T05:23:48.633Z,3.55
2023-02-06T05:24:51.707Z,4.55
2023-02-06T05:25:54.953Z,4.30
2023-02-06T05:26:58.739Z,3.42
2023-02-06T05:28:03.113Z,3.60
2023-02-06T05:29:06.388Z,4.22
2023-02-06T05:30:10.232Z,3.25
2023-02-06T05:31:20.979Z,3.28
2023-02-06T05:32:24.139Z,3.58
2023-02-06T05:33:27.176Z,4.18
2023-02-06T05:34:30.293Z,4.20
2023-02-06T05:35:33.368Z,3.97
2023-02-06T05:36:36.794Z,3.58
2023-02-06T05:37:39.775Z,3.40
2023-02-06T05:38:42.928Z,3.45
2023-02-06T05:39:45.987Z,3.87
2023-02-06T05:40:51.610Z,2.92
2023-02-06T05:41:54.673Z,3.58
2023-02-06T05:42:58.937Z,3.65
2023-02-06T05:44:02.059Z,3.72
2023-02-06T05:45:05.399Z,3.25
2023-02-06T05:46:08.635Z,3.42
2023-02-06T05:47:11.879Z,3.45
2023-02-06T05:48:15.064Z,2.97
2023-02-06T05:49:18.209Z,3.67
2023-02-06T05:50:21.776Z,3.62
2023-02-06T05:51:24.780Z,3.45
2023-02-06T05:52:27.677Z,3.40
2023-02-06T05:53:31.004Z,3.17
2023-02-06T05:54:33.984Z,3.47
2023-02-06T05:55:37.271Z,3.53
2023-02-06T05:56:40.494Z,3.28
2023-02-06T05:57:43.746Z,2.78
2023-02-06T05:58:46.992Z,3.67
2023-02-06T05:59:50.240Z,3.60
2023-02-06T06:00:53.644Z,3.62
2023-02-06T06:01:56.530Z,3.42
2023-02-06T06:02:59.841Z,3.90
2023-02-06T06:04:02.825Z,3.80
2023-02-06T06:05:06.118Z,3.53
2023-02-06T06:06:09.260Z,3.85
2023-02-06T06:07:12.101Z,3.42
2023-02-06T06:08:15.757Z,3.83
2023-02-06T06:09:18.804Z,3.55
2023-02-06T06:10:21.929Z,3.97
2023-02-06T06:11:25.087Z,3.75
2023-02-06T06:12:28.039Z,4.05
2023-02-06T06:13:31.189Z,4.18
2023-02-06T06:14:34.138Z,3.60
2023-02-06T06:15:37.555Z,4.18
2023-02-06T06:16:42.040Z,4.32
2023-02-06T06:17:48.597Z,4.57
2023-02-06T06:18:51.823Z,4.57
2023-02-06T06:19:54.862Z,4.57
2023-02-06T06:20:57.945Z,4.95
2023-02-06T06:22:01.028Z,4.95
2023-02-06T06:23:04.288Z,4.85
2023-02-06T06:24:07.605Z,4.30
2023-02-06T06:25:10.893Z,5.30
2023-02-06T06:26:14.155Z,4.57
2023-02-06T06:27:17.511Z,5.03
2023-02-06T06:28:22.817Z,4.82
2023-02-06T06:29:26.856Z,5.65
2023-02-06T06:30:30.229Z,4.85
2023-02-06T06:31:33.538Z,4.68
2023-02-06T06:32:36.996Z,5.70
2023-02-06T06:33:40.972Z,5.75
2023-02-06T06:34:44.007Z,4.97
2023-02-06T06:35:47.073Z,5.45
2023-02-06T06:36:50.090Z,5.72
2023-02-06T06:37:53.069Z,4.37
2023-02-06T06:38:56.359Z,5.20
2023-02-06T06:39:59.435Z,5.25
2023-02-06T06:41:02.492Z,5.37
2023-02-06T06:42:05.477Z,5.60
2023-02-06T06:43:08.498Z,5.25
2023-02-06T06:44:11.398Z,5.43
2023-02-06T06:45:14.529Z,6.10
2023-02-06T06:46:19.392Z,5.28
2023-02-06T06:47:22.491Z,6.35
2023-02-06T06:48:28.584Z,5.43
2023-02-06T06:49:31.805Z,5.82
2023-02-06T06:50:35.014Z,5.03
2023-02-06T06:51:38.139Z,5.35
2023-02-06T06:52:41.203Z,5.70
2023-02-06T06:53:44.246Z,5.95
2023-02-06T06:54:47.411Z,5.87
2023-02-06T06:55:50.537Z,5.37
2023-02-06T06:56:53.573Z,5.78
2023-02-06T06:57:56.534Z,6.40
2023-02-06T06:58:59.761Z,5.75
2023-02-06T07:00:03.233Z,5.82
2023-02-06T07:01:08.949Z,6.12
2023-02-06T07:02:12.252Z,6.80
2023-02-06T07:03:15.370Z,7.12
2023-02-06T07:04:21.214Z,7.93
2023-02-06T07:05:24.210Z,6.53
2023-02-06T07:06:27.702Z,6.15
2023-02-06T07:07:30.781Z,6.82
2023-02-06T07:08:36.305Z,6.68
2023-02-06T07:09:39.433Z,6.43
2023-02-06T07:10:42.820Z,6.32
2023-02-06T07:11:45.939Z,6.82
2023-02-06T07:12:48.944Z,7.12
2023-02-06T07:13:52.501Z,6.47
2023-02-06T07:14:55.737Z,7.18
2023-02-06T07:15:58.803Z,6.72
2023-02-06T07:17:02.292Z,6.93
2023-02-06T07:18:05.545Z,8.05
2023-02-06T07:19:09.545Z,7.47
2023-02-06T07:20:13.214Z,7.05
2023-02-06T07:21:20.649Z,7.28
2023-02-06T07:22:23.885Z,7.12
2023-02-06T07:23:27.545Z,8.23
2023-02-06T07:24:30.580Z,7.68
2023-02-06T07:25:34.347Z,7.18
2023-02-06T07:26:37.632Z,8.07
2023-02-06T07:27:40.944Z,7.70
2023-02-06T07:28:44.288Z,7.35
2023-02-06T07:29:47.432Z,10.00
2023-02-06T07:30:50.795Z,7.87
2023-02-06T07:31:54.080Z,7.22
2023-02-06T07:32:57.107Z,7.28
2023-02-06T07:34:02.523Z,7.80
2023-02-06T07:35:06.495Z,6.60
2023-02-06T07:36:14.436Z,6.57
2023-02-06T07:37:20.568Z,7.40
2023-02-06T07:38:23.585Z,7.00
2023-02-06T07:41:06.473Z,6.90
2023-02-06T07:42:09.494Z,5.60
2023-02-06T07:43:13.064Z,6.82
2023-02-06T07:44:16.216Z,7.00
2023-02-06T07:45:19.594Z,7.10
2023-02-06T07:46:23.021Z,4.40
2023-02-06T07:47:26.734Z,5.85
2023-02-06T07:48:31.245Z,5.40
2023-02-06T07:49:34.078Z,4.95
2023-02-06T07:50:37.224Z,4.78
2023-02-06T07:51:40.166Z,4.12
2023-02-06T07:52:43.208Z,4.55
2023-02-06T07:53:46.341Z,4.00
2023-02-06T07:54:49.495Z,4.45
2023-02-06T07:55:52.533Z,3.45
2023-02-06T07:56:55.721Z,4.10
2023-02-06T07:57:58.971Z,3.90
2023-02-06T07:59:02.426Z,3.70
2023-02-06T08:00:06.106Z,4.07
2023-02-06T08:01:10.053Z,4.15
2023-02-06T08:02:13.251Z,4.30
2023-02-06T08:03:16.453Z,4.03
2023-02-06T08:04:19.708Z,4.00
2023-02-06T08:05:22.862Z,3.90
2023-02-06T08:06:26.679Z,4.43
2023-02-06T08:07:29.970Z,3.45
2023-02-06T08:08:33.189Z,4.00
2023-02-06T08:09:36.338Z,3.90
2023-02-06T08:10:40.262Z,3.92
2023-02-06T08:11:43.790Z,3.78
2023-02-06T08:12:46.862Z,3.75
2023-02-06T08:13:50.161Z,3.72
2023-02-06T08:14:53.237Z,4.30
2023-02-06T08:15:56.286Z,4.12
2023-02-06T08:16:59.825Z,3.80
2023-02-06T08:18:02.910Z,4.00
2023-02-06T08:19:07.206Z,3.78
2023-02-06T08:20:11.497Z,3.80
2023-02-06T08:21:23.076Z,3.33
2023-02-06T08:22:26.244Z,3.90
2023-02-06T08:23:29.514Z,3.87
2023-02-06T08:24:32.897Z,3.90
2023-02-06T08:25:36.137Z,4.25
2023-02-06T08:26:39.981Z,4.53
2023-02-06T08:27:43.353Z,3.85
2023-02-06T08:28:48.500Z,4.00
2023-02-06T08:29:52.502Z,3.85
2023-02-06T08:30:55.643Z,4.32
2023-02-06T08:31:59.014Z,3.92
2023-02-06T08:33:02.076Z,3.80
2023-02-06T08:34:06.651Z,4.07
2023-02-06T08:35:09.598Z,3.97
2023-02-06T08:36:15.568Z,3.33
2023-02-06T08:37:19.079Z,3.72
2023-02-06T08:38:22.337Z,3.60
2023-02-06T08:39:25.482Z,3.92
2023-02-06T08:40:28.540Z,3.60
2023-02-06T08:41:38.000Z,4.00
2023-02-06T08:42:40.945Z,3.67
2023-02-06T08:43:48.207Z,4.22
2023-02-06T08:44:52.661Z,4.18
2023-02-06T08:46:00.038Z,4.07
2023-02-06T08:47:10.206Z,4.00
2023-02-06T08:48:16.870Z,4.43
2023-02-06T08:49:22.502Z,4.45
2023-02-06T08:50:25.551Z,3.30
2023-02-06T08:51:29.141Z,4.50
2023-02-06T08:52:32.306Z,4.22
2023-02-06T08:53:36.429Z,3.33
2023-02-06T08:54:39.622Z,4.00
2023-02-06T08:55:45.823Z,3.58
2023-02-06T08:56:49.934Z,4.37
2023-02-06T08:57:53.536Z,3.83
2023-02-06T08:59:01.678Z,3.78
2023-02-06T09:00:05.803Z,3.53
2023-02-06T09:01:14.334Z,4.12
2023-02-06T09:02:17.732Z,4.18
2023-02-06T09:03:23.350Z,4.10
2023-02-06T09:04:31.863Z,4.20
2023-02-06T09:05:34.928Z,3.65
2023-02-06T09:06:40.668Z,3.85
2023-02-06T09:07:43.655Z,3.60
2023-02-06T09:08:46.716Z,4.10
2023-02-06T09:09:49.923Z,3.62
2023-02-06T09:10:53.052Z,4.18
2023-02-06T09:11:58.039Z,3.95
2023-02-06T09:13:01.043Z,3.92
2023-02-06T09:14:07.115Z,4.37
2023-02-06T09:15:10.526Z,4.22
2023-02-06T09:16:16.016Z,3.95
2023-02-06T09:17:19.298Z,4.15
2023-02-06T09:18:22.465Z,5.07
2023-02-06T09:19:26.635Z,4.62
2023-02-06T09:20:29.663Z,4.75
2023-02-06T09:21:35.385Z,4.72
2023-02-06T09:22:38.370Z,4.57
2023-02-06T09:23:44.180Z,4.60
2023-02-06T09:24:47.207Z,4.28
2023-02-06T09:25:50.239Z,4.45
2023-02-06T09:26:59.765Z,4.35
2023-02-06T09:28:03.150Z,4.30
2023-02-06T09:29:08.169Z,4.55
2023-02-06T09:30:11.977Z,4.80
2023-02-06T09:31:15.675Z,4.90
2023-02-06T09:32:19.145Z,4.75
2023-02-06T09:33:22.244Z,4.80
2023-02-06T09:34:26.314Z,5.03
2023-02-06T09:35:29.240Z,5.30
2023-02-06T09:36:34.104Z,4.93
2023-02-06T09:37:37.113Z,5.40
2023-02-06T09:38:48.617Z,4.90
2023-02-06T09:39:51.780Z,4.65
2023-02-06T09:40:56.724Z,5.03
2023-02-06T09:42:06.817Z,5.35
2023-02-06T09:43:12.589Z,5.12
2023-02-06T09:44:35.052Z,5.03
2023-02-06T09:45:39.990Z,5.93
2023-02-06T09:46:52.203Z,5.90
2023-02-06T09:48:06.544Z,5.50
2023-02-06T09:49:37.556Z,5.32
2023-02-06T09:51:02.225Z,4.22
2023-02-06T09:52:29.327Z,4.28
2023-02-06T09:53:47.410Z,5.22
2023-02-06T09:54:53.331Z,4.70
2023-02-06T09:56:09.037Z,4.53
2023-02-06T09:57:15.966Z,4.45
2023-02-06T09:58:20.552Z,5.22
2023-02-06T09:59:35.851Z,4.50
2023-02-06T10:00:52.725Z,5.03
2023-02-06T10:02:19.404Z,4.40
2023-02-06T10:03:52.953Z,5.07
2023-02-06T10:05:29.300Z,5.00
2023-02-06T10:06:47.703Z,4.55
2023-02-06T10:08:11.005Z,4.37
2023-02-06T10:09:24.941Z,3.72
2023-02-06T10:10:44.355Z,4.80
2023-02-06T10:11:56.815Z,4.78
2023-02-06T10:13:20.339Z,4.93
2023-02-06T10:14:36.763Z,4.65
2023-02-06T10:15:47.663Z,4.37
2023-02-06T10:17:05.324Z,4.12
2023-02-06T10:18:11.373Z,4.50
2023-02-06T10:19:36.059Z,4.07
2023-02-06T10:20:58.951Z,4.07
2023-02-06T10:22:05.454Z,3.45
2023-02-06T10:23:23.255Z,3.95
2023-02-06T10:24:59.062Z,4.00
2023-02-06T10:26:18.471Z,4.20
2023-02-06T10:27:21.611Z,4.20
2023-02-06T10:28:29.413Z,4.43
2023-02-06T10:29:36.593Z,4.40
2023-02-06T10:31:02.808Z,4.50
2023-02-06T10:32:33.779Z,4.37
2023-02-06T10:34:18.268Z,4.45
2023-02-06T10:35:24.481Z,4.15
2023-02-06T10:36:50.082Z,4.32
2023-02-06T10:38:25.665Z,4.32
2023-02-06T10:39:47.356Z,4.28
2023-02-06T10:41:15.152Z,4.25
2023-02-06T10:42:25.865Z,4.87
2023-02-06T10:43:48.439Z,4.30
2023-02-06T10:45:18.464Z,4.18
2023-02-06T10:46:43.123Z,4.57
2023-02-06T10:47:49.765Z,4.47
2023-02-06T10:49:07.208Z,4.22
2023-02-06T10:50:20.019Z,4.22
2023-02-06T10:51:32.253Z,4.78
2023-02-06T10:52:37.716Z,4.00
2023-02-06T10:53:52.683Z,4.03
2023-02-06T10:55:01.654Z,4.43
2023-02-06T10:56:12.982Z,4.47
2023-02-06T10:57:28.956Z,4.43
2023-02-06T10:58:52.681Z,4.25
2023-02-06T11:00:00.912Z,4.50
2023-02-06T11:01:23.631Z,4.00
2023-02-06T11:03:06.827Z,4.60
2023-02-06T11:04:10.262Z,4.07
2023-02-06T11:05:21.870Z,4.40
2023-02-06T11:07:38.682Z,3.83
2023-02-06T11:08:46.561Z,4.18
2023-02-06T11:09:49.784Z,4.53
2023-02-06T11:10:54.200Z,4.32
2023-02-06T11:11:58.887Z,4.03
2023-02-06T11:13:29.351Z,4.72
2023-02-06T11:15:43.543Z,4.00
2023-02-06T11:16:47.864Z,4.15
2023-02-06T11:17:53.004Z,4.47
2023-02-06T11:19:00.552Z,3.70
2023-02-06T11:20:22.059Z,4.20
2023-02-06T11:21:53.546Z,3.78
2023-02-06T11:22:57.183Z,4.40
2023-02-06T11:24:12.373Z,4.37
2023-02-06T11:25:27.369Z,4.18
2023-02-06T11:26:31.777Z,4.10
2023-02-06T11:27:36.657Z,4.30
2023-02-06T11:28:49.809Z,4.85
2023-02-06T11:29:52.987Z,4.28
2023-02-06T11:31:01.592Z,4.45
2023-02-06T11:32:09.230Z,3.80
2023-02-06T11:33:56.115Z,3.97
2023-02-06T11:35:17.694Z,4.25
2023-02-06T11:36:22.996Z,4.55
2023-02-06T11:37:38.302Z,5.00
2023-02-06T11:38:55.816Z,4.40
2023-02-06T11:40:27.109Z,4.15
2023-02-06T11:41:31.162Z,5.18
2023-02-06T11:42:36.329Z,4.37
2023-02-06T11:43:42.230Z,4.70
2023-02-06T11:44:50.962Z,4.53
2023-02-06T11:46:16.370Z,4.45
2023-02-06T11:47:37.545Z,4.47
2023-02-06T11:48:44.958Z,4.57
2023-02-06T11:49:48.433Z,4.20
2023-02-06T11:50:58.561Z,4.85
2023-02-06T11:52:04.002Z,4.68
2023-02-06T11:53:22.620Z,4.93
2023-02-06T11:54:36.043Z,5.03
2023-02-06T11:55:40.170Z,5.00
2023-02-06T11:57:03.609Z,4.82
2023-02-06T11:58:25.506Z,4.97
2023-02-06T11:59:30.178Z,4.97
2023-02-06T12:00:36.604Z,4.30
2023-02-06T12:01:48.581Z,4.20
2023-02-06T12:02:54.289Z,4.35
2023-02-06T12:04:00.634Z,4.00
2023-02-06T12:05:16.089Z,4.82
2023-02-06T12:06:35.276Z,4.40
2023-02-06T12:08:03.386Z,4.53
2023-02-06T12:09:13.400Z,4.10
2023-02-06T12:10:19.977Z,4.82
2023-02-06T12:11:33.776Z,4.50
2023-02-06T12:12:43.093Z,4.22
2023-02-06T12:13:52.683Z,4.72
2023-02-06T12:15:29.436Z,4.45
2023-02-06T12:16:35.202Z,4.12
2023-02-06T12:17:43.032Z,4.50
2023-02-06T12:18:50.833Z,4.32
2023-02-06T12:20:35.311Z,4.10
2023-02-06T12:21:52.312Z,3.85
2023-02-06T12:23:07.460Z,4.60
2023-02-06T12:24:35.388Z,4.28
2023-02-06T12:25:42.304Z,4.62
2023-02-06T12:26:48.439Z,4.30
2023-02-06T12:27:56.809Z,4.30
2023-02-06T12:29:20.642Z,4.18
2023-02-06T12:30:36.201Z,4.68
2023-02-06T12:31:44.490Z,4.25
2023-02-06T12:32:51.142Z,4.32
2023-02-06T12:34:01.827Z,4.37
2023-02-06T12:35:21.897Z,4.60
2023-02-06T12:36:34.694Z,4.35
2023-02-06T12:37:49.543Z,4.53
2023-02-06T12:39:05.732Z,4.53
2023-02-06T12:40:49.972Z,4.40
2023-02-06T12:42:30.046Z,4.70
2023-02-06T12:44:55.331Z,4.80
2023-02-06T12:46:06.417Z,4.20
2023-02-06T12:47:30.900Z,5.22
2023-02-06T12:48:42.158Z,4.68
2023-02-06T12:49:54.142Z,4.35
2023-02-06T12:51:22.159Z,5.07
2023-02-06T12:52:41.974Z,4.25
2023-02-06T12:53:56.878Z,5.07
2023-02-06T12:55:08.917Z,5.30
2023-02-06T12:56:24.615Z,5.43
2023-02-06T12:57:31.706Z,5.40
2023-02-06T12:58:44.429Z,5.12
2023-02-06T13:00:23.090Z,5.40
2023-02-06T13:01:49.284Z,5.32
2023-02-06T13:03:21.266Z,5.43
2023-02-06T13:04:37.872Z,5.30
2023-02-06T13:05:50.455Z,5.18
2023-02-06T13:07:07.584Z,5.20
2023-02-06T13:08:29.082Z,5.20
2023-02-06T13:09:41.896Z,5.43
2023-02-06T13:10:45.418Z,5.37
2023-02-06T13:11:48.814Z,5.45
2023-02-06T13:12:57.440Z,5.43
2023-02-06T13:14:21.433Z,5.40
2023-02-06T13:15:27.743Z,4.93
2023-02-06T13:16:45.548Z,4.68
2023-02-06T13:17:51.750Z,4.62
2023-02-06T13:19:01.781Z,4.95
2023-02-06T13:20:09.467Z,5.47
2023-02-06T13:21:28.808Z,4.65
2023-02-06T13:22:46.315Z,5.60
2023-02-06T13:23:51.164Z,5.40
2023-02-06T13:24:58.128Z,5.95
2023-02-06T13:26:03.402Z,5.60
2023-02-06T13:27:11.443Z,5.68
2023-02-06T13:28:25.055Z,5.20
2023-02-06T13:29:37.801Z,5.60
2023-02-06T13:30:40.683Z,5.90
2023-02-06T13:31:43.772Z,5.60
2023-02-06T13:32:53.627Z,5.32
2023-02-06T13:34:02.739Z,5.18
2023-02-06T13:35:21.659Z,5.60
2023-02-06T13:36:40.315Z,5.22
2023-02-06T13:37:48.062Z,5.78
2023-02-06T13:39:00.597Z,6.22
2023-02-06T13:40:21.563Z,5.57
2023-02-06T13:41:29.599Z,4.90
2023-02-06T13:42:44.643Z,5.55
2023-02-06T13:44:16.696Z,5.47
2023-02-06T13:45:27.328Z,5.35
2023-02-06T13:47:00.623Z,5.65
2023-02-06T13:48:17.684Z,5.03
2023-02-06T13:49:38.965Z,4.82
2023-02-06T13:50:53.709Z,5.53
2023-02-06T13:52:11.849Z,5.05
2023-02-06T13:53:36.230Z,5.72
2023-02-06T13:55:06.706Z,5.62
2023-02-06T13:56:25.787Z,4.55
2023-02-06T13:57:51.915Z,5.03
2023-02-06T13:58:58.100Z,4.68
2023-02-06T14:00:16.256Z,5.62
2023-02-06T14:01:28.663Z,5.03
2023-02-06T14:02:43.328Z,5.68
2023-02-06T14:03:50.422Z,5.75
2023-02-06T14:04:53.994Z,5.40
2023-02-06T14:06:21.661Z,5.20
2023-02-06T14:07:45.563Z,5.90
2023-02-06T14:09:10.309Z,5.12
2023-02-06T14:10:19.533Z,5.03
2023-02-06T14:11:37.567Z,5.50
2023-02-06T14:12:44.662Z,4.85
2023-02-06T14:13:57.940Z,5.57
2023-02-06T14:15:09.014Z,5.47
2023-02-06T14:16:50.053Z,5.00
2023-02-06T14:18:30.527Z,5.30
2023-02-06T14:19:47.005Z,4.87
2023-02-06T14:21:10.565Z,5.00
2023-02-06T14:22:47.732Z,5.18
2023-02-06T14:23:59.704Z,5.30
2023-02-06T14:25:26.147Z,4.65
2023-02-06T14:26:52.129Z,5.87
2023-02-06T14:28:19.575Z,5.20
2023-02-06T14:29:39.009Z,5.20
2023-02-06T14:30:47.631Z,5.10
2023-02-06T14:32:08.374Z,4.65
2023-02-06T14:34:42.931Z,5.68
2023-02-06T14:35:58.316Z,5.47
2023-02-06T14:37:26.071Z,5.22
2023-02-06T14:39:03.667Z,5.03
2023-02-06T14:40:24.524Z,5.05
2023-02-06T14:41:31.437Z,5.07
2023-02-06T14:42:41.281Z,5.00
2023-02-06T14:43:46.834Z,5.70
2023-02-06T14:44:57.396Z,6.07
2023-02-06T14:46:08.058Z,5.87
2023-02-06T14:47:19.446Z,5.62
2023-02-06T14:48:46.569Z,5.70
2023-02-06T14:49:52.731Z,4.90
2023-02-06T14:50:58.338Z,4.68
2023-02-06T14:52:03.528Z,5.30
2023-02-06T14:53:25.410Z,5.78
2023-02-06T14:54:33.296Z,4.95
2023-02-06T14:55:42.269Z,5.25
2023-02-06T14:56:45.415Z,5.68
2023-02-06T14:57:48.584Z,5.45
2023-02-06T14:58:51.857Z,5.45
2023-02-06T15:00:02.010Z,5.55
2023-02-06T15:01:19.220Z,6.20
2023-02-06T15:02:35.366Z,4.97
2023-02-06T15:03:40.332Z,5.43
2023-02-06T15:04:47.831Z,5.07
2023-02-06T15:06:10.565Z,5.20
2023-02-06T15:07:30.290Z,5.28
2023-02-06T15:08:34.707Z,5.60
2023-02-06T15:09:40.680Z,5.60
2023-02-06T15:10:43.968Z,4.70
2023-02-06T15:11:51.710Z,5.22
2023-02-06T15:12:57.711Z,5.62
2023-02-06T15:14:25.984Z,5.18
2023-02-06T15:15:32.034Z,5.57
2023-02-06T15:16:48.939Z,4.95
2023-02-06T15:18:16.927Z,4.80
2023-02-06T15:19:33.615Z,5.85
2023-02-06T15:20:43.605Z,4.65
2023-02-06T15:21:47.739Z,5.07
2023-02-06T15:22:51.379Z,5.22
2023-02-06T15:24:20.851Z,5.35
2023-02-06T15:25:55.058Z,5.12